sensor_id;sensor_type;location;lat;lon;timestamp;pressure;altitude;pressure_sealevel;temperature;humidity
75553;BME280;64136;53.118;17.996;2023-03-14T00:02:11;98830.59;;;11.43;73.34
75553;BME280;64136;53.118;17.996;2023-03-14T00:04:38;98827.56;;;11.40;73.18
75553;BME280;64136;53.118;17.996;2023-03-14T00:07:04;98826.52;;;11.42;73.06
75553;BME280;64136;53.118;17.996;2023-03-14T00:09:30;98829.20;;;11.41;72.95
75553;BME280;64136;53.118;17.996;2023-03-14T00:11:56;98833.80;;;11.43;73.16
75553;BME280;64136;53.118;17.996;2023-03-14T00:19:15;98845.66;;;11.42;72.89
75553;BME280;64136;53.118;17.996;2023-03-14T00:21:42;98838.42;;;11.45;72.89
75553;BME280;64136;53.118;17.996;2023-03-14T00:24:08;98841.54;;;11.38;73.02
75553;BME280;64136;53.118;17.996;2023-03-14T00:26:34;98840.32;;;11.37;73.05
75553;BME280;64136;53.118;17.996;2023-03-14T00:29:01;98834.77;;;11.37;73.13
75553;BME280;64136;53.118;17.996;2023-03-14T00:31:27;98835.10;;;11.39;72.89
75553;BME280;64136;53.118;17.996;2023-03-14T00:33:53;98834.16;;;11.42;72.56
75553;BME280;64136;53.118;17.996;2023-03-14T00:36:20;98841.60;;;11.42;72.62
75553;BME280;64136;53.118;17.996;2023-03-14T00:38:49;98841.15;;;11.42;72.40
75553;BME280;64136;53.118;17.996;2023-03-14T00:41:19;98836.95;;;11.42;72.40
75553;BME280;64136;53.118;17.996;2023-03-14T00:43:45;98832.77;;;11.45;72.14
75553;BME280;64136;53.118;17.996;2023-03-14T00:46:12;98829.41;;;11.45;72.26
75553;BME280;64136;53.118;17.996;2023-03-14T00:48:39;98825.42;;;11.42;72.41
75553;BME280;64136;53.118;17.996;2023-03-14T00:51:07;98818.16;;;11.38;72.37
75553;BME280;64136;53.118;17.996;2023-03-14T00:53:36;98813.34;;;11.34;72.20
75553;BME280;64136;53.118;17.996;2023-03-14T00:58:29;98796.77;;;11.38;71.99
75553;BME280;64136;53.118;17.996;2023-03-14T01:00:56;98801.73;;;11.36;72.08
75553;BME280;64136;53.118;17.996;2023-03-14T01:03:22;98792.50;;;11.34;72.18
75553;BME280;64136;53.118;17.996;2023-03-14T01:05:50;98794.82;;;11.32;72.19
75553;BME280;64136;53.118;17.996;2023-03-14T01:08:16;98787.89;;;11.28;72.04
75553;BME280;64136;53.118;17.996;2023-03-14T01:10:42;98779.69;;;11.29;71.95
75553;BME280;64136;53.118;17.996;2023-03-14T01:13:10;98777.91;;;11.27;72.01
75553;BME280;64136;53.118;17.996;2023-03-14T01:15:37;98783.69;;;11.21;71.96
75553;BME280;64136;53.118;17.996;2023-03-14T01:18:03;98782.52;;;11.22;72.07
75553;BME280;64136;53.118;17.996;2023-03-14T01:20:30;98779.36;;;11.27;71.98
75553;BME280;64136;53.118;17.996;2023-03-14T01:22:57;98772.85;;;11.23;71.78
75553;BME280;64136;53.118;17.996;2023-03-14T01:25:23;98769.71;;;11.22;71.90
75553;BME280;64136;53.118;17.996;2023-03-14T01:30:16;98775.65;;;11.18;72.02
75553;BME280;64136;53.118;17.996;2023-03-14T01:32:46;98773.07;;;11.19;72.02
75553;BME280;64136;53.118;17.996;2023-03-14T01:35:13;98764.76;;;11.18;72.12
75553;BME280;64136;53.118;17.996;2023-03-14T01:37:40;98753.73;;;11.17;72.23
75553;BME280;64136;53.118;17.996;2023-03-14T01:40:10;98752.11;;;11.14;72.32
75553;BME280;64136;53.118;17.996;2023-03-14T01:42:37;98751.48;;;11.17;72.23
75553;BME280;64136;53.118;17.996;2023-03-14T01:45:03;98752.85;;;11.17;72.45
75553;BME280;64136;53.118;17.996;2023-03-14T01:47:29;98745.01;;;11.14;72.63
75553;BME280;64136;53.118;17.996;2023-03-14T01:50:04;98741.41;;;11.13;72.66
75553;BME280;64136;53.118;17.996;2023-03-14T01:52:38;98736.48;;;11.18;72.69
75553;BME280;64136;53.118;17.996;2023-03-14T01:55:15;98732.45;;;11.21;72.53
75553;BME280;64136;53.118;17.996;2023-03-14T01:57:47;98728.49;;;11.20;72.69
75553;BME280;64136;53.118;17.996;2023-03-14T02:00:19;98725.11;;;11.18;72.83
75553;BME280;64136;53.118;17.996;2023-03-14T02:02:49;98723.89;;;11.18;72.96
75553;BME280;64136;53.118;17.996;2023-03-14T02:05:23;98720.61;;;11.22;72.87
75553;BME280;64136;53.118;17.996;2023-03-14T02:07:57;98712.96;;;11.19;73.00
75553;BME280;64136;53.118;17.996;2023-03-14T02:10:34;98708.41;;;11.15;73.12
75553;BME280;64136;53.118;17.996;2023-03-14T02:13:04;98711.96;;;11.09;73.42
75553;BME280;64136;53.118;17.996;2023-03-14T02:15:40;98717.27;;;11.11;73.31
75553;BME280;64136;53.118;17.996;2023-03-14T02:18:16;98717.23;;;11.12;73.42
75553;BME280;64136;53.118;17.996;2023-03-14T02:23:49;98716.34;;;11.04;73.80
75553;BME280;64136;53.118;17.996;2023-03-14T02:26:36;98722.69;;;11.04;73.92
75553;BME280;64136;53.118;17.996;2023-03-14T02:29:05;98720.72;;;11.09;73.95
75553;BME280;64136;53.118;17.996;2023-03-14T02:31:32;98719.02;;;11.08;74.09
75553;BME280;64136;53.118;17.996;2023-03-14T02:33:59;98721.81;;;11.10;74.15
75553;BME280;64136;53.118;17.996;2023-03-14T02:36:26;98721.42;;;11.14;74.29
75553;BME280;64136;53.118;17.996;2023-03-14T02:38:55;98722.08;;;11.20;74.39
75553;BME280;64136;53.118;17.996;2023-03-14T02:41:24;98724.27;;;11.23;74.42
75553;BME280;64136;53.118;17.996;2023-03-14T02:43:58;98715.64;;;11.27;74.35
75553;BME280;64136;53.118;17.996;2023-03-14T02:46:25;98715.46;;;11.29;74.53
75553;BME280;64136;53.118;17.996;2023-03-14T02:51:21;98716.88;;;11.39;74.28
75553;BME280;64136;53.118;17.996;2023-03-14T02:54:08;98719.78;;;11.42;74.40
75553;BME280;64136;53.118;17.996;2023-03-14T02:56:34;98725.50;;;11.41;74.36
75553;BME280;64136;53.118;17.996;2023-03-14T02:59:05;98717.98;;;11.49;74.25
75553;BME280;64136;53.118;17.996;2023-03-14T03:01:37;98723.80;;;11.56;74.01
75553;BME280;64136;53.118;17.996;2023-03-14T03:04:03;98730.42;;;11.58;74.05
75553;BME280;64136;53.118;17.996;2023-03-14T03:06:30;98728.75;;;11.60;74.08
75553;BME280;64136;53.118;17.996;2023-03-14T03:08:56;98733.48;;;11.70;73.75
75553;BME280;64136;53.118;17.996;2023-03-14T03:11:23;98731.61;;;11.72;73.68
75553;BME280;64136;53.118;17.996;2023-03-14T03:13:49;98735.63;;;11.75;73.69
75553;BME280;64136;53.118;17.996;2023-03-14T03:16:15;98732.08;;;11.79;73.79
75553;BME280;64136;53.118;17.996;2023-03-14T03:18:41;98730.64;;;11.84;73.75
75553;BME280;64136;53.118;17.996;2023-03-14T03:21:08;98734.33;;;11.83;73.83
75553;BME280;64136;53.118;17.996;2023-03-14T03:23:35;98729.27;;;11.80;74.00
75553;BME280;64136;53.118;17.996;2023-03-14T03:26:01;98723.95;;;11.80;73.99
75553;BME280;64136;53.118;17.996;2023-03-14T03:28:29;98720.73;;;11.81;74.08
75553;BME280;64136;53.118;17.996;2023-03-14T03:30:55;98716.83;;;11.79;74.11
75553;BME280;64136;53.118;17.996;2023-03-14T03:33:22;98711.35;;;11.77;74.33
75553;BME280;64136;53.118;17.996;2023-03-14T03:35:50;98708.99;;;11.77;74.31
75553;BME280;64136;53.118;17.996;2023-03-14T03:38:22;98716.37;;;11.76;74.36
75553;BME280;64136;53.118;17.996;2023-03-14T03:40:49;98720.45;;;11.74;74.50
75553;BME280;64136;53.118;17.996;2023-03-14T03:43:16;98722.19;;;11.71;74.66
75553;BME280;64136;53.118;17.996;2023-03-14T03:45:43;98722.45;;;11.66;74.85
75553;BME280;64136;53.118;17.996;2023-03-14T03:48:09;98714.54;;;11.66;74.86
75553;BME280;64136;53.118;17.996;2023-03-14T03:50:36;98712.73;;;11.66;74.80
75553;BME280;64136;53.118;17.996;2023-03-14T03:53:02;98710.45;;;11.62;75.16
75553;BME280;64136;53.118;17.996;2023-03-14T03:55:29;98700.70;;;11.57;75.27
75553;BME280;64136;53.118;17.996;2023-03-14T03:57:55;98687.13;;;11.51;75.73
75553;BME280;64136;53.118;17.996;2023-03-14T04:00:21;98668.50;;;11.51;75.78
75553;BME280;64136;53.118;17.996;2023-03-14T04:02:48;98651.89;;;11.50;75.93
75553;BME280;64136;53.118;17.996;2023-03-14T04:05:16;98645.29;;;11.48;76.06
75553;BME280;64136;53.118;17.996;2023-03-14T04:07:50;98639.59;;;11.43;76.18
75553;BME280;64136;53.118;17.996;2023-03-14T04:10:21;98635.48;;;11.39;76.47
75553;BME280;64136;53.118;17.996;2023-03-14T04:13:02;98627.72;;;11.37;76.50
75553;BME280;64136;53.118;17.996;2023-03-14T04:15:31;98629.54;;;11.33;76.95
75553;BME280;64136;53.118;17.996;2023-03-14T04:18:01;98628.30;;;11.26;77.30
75553;BME280;64136;53.118;17.996;2023-03-14T04:20:27;98639.64;;;11.19;77.81
75553;BME280;64136;53.118;17.996;2023-03-14T04:22:54;98637.54;;;11.15;78.06
75553;BME280;64136;53.118;17.996;2023-03-14T04:27:51;98623.56;;;11.20;77.78
75553;BME280;64136;53.118;17.996;2023-03-14T04:30:22;98624.52;;;11.18;78.31
75553;BME280;64136;53.118;17.996;2023-03-14T04:32:53;98612.02;;;11.15;78.48
75553;BME280;64136;53.118;17.996;2023-03-14T04:35:22;98607.58;;;11.12;78.50
75553;BME280;64136;53.118;17.996;2023-03-14T04:37:49;98603.57;;;11.13;78.17
75553;BME280;64136;53.118;17.996;2023-03-14T04:40:16;98596.85;;;11.09;78.83
75553;BME280;64136;53.118;17.996;2023-03-14T04:42:42;98598.27;;;11.07;78.96
75553;BME280;64136;53.118;17.996;2023-03-14T04:45:09;98589.18;;;11.04;78.81
75553;BME280;64136;53.118;17.996;2023-03-14T04:47:37;98585.11;;;11.02;78.89
75553;BME280;64136;53.118;17.996;2023-03-14T04:50:04;98583.72;;;11.02;79.01
75553;BME280;64136;53.118;17.996;2023-03-14T04:52:30;98592.78;;;11.05;78.82
75553;BME280;64136;53.118;17.996;2023-03-14T04:54:57;98597.77;;;11.07;78.50
75553;BME280;64136;53.118;17.996;2023-03-14T04:57:24;98596.23;;;11.06;78.83
75553;BME280;64136;53.118;17.996;2023-03-14T04:59:51;98602.27;;;11.04;79.14
75553;BME280;64136;53.118;17.996;2023-03-14T05:02:35;98601.00;;;11.04;79.18
75553;BME280;64136;53.118;17.996;2023-03-14T05:05:08;98597.64;;;10.95;79.57
75553;BME280;64136;53.118;17.996;2023-03-14T05:07:44;98599.12;;;10.90;79.68
75553;BME280;64136;53.118;17.996;2023-03-14T05:10:13;98594.38;;;10.86;79.74
75553;BME280;64136;53.118;17.996;2023-03-14T05:12:48;98586.98;;;10.81;79.56
75553;BME280;64136;53.118;17.996;2023-03-14T05:15:17;98571.61;;;10.77;79.35
75553;BME280;64136;53.118;17.996;2023-03-14T05:17:58;98568.57;;;10.74;79.12
75553;BME280;64136;53.118;17.996;2023-03-14T05:20:27;98573.48;;;10.71;78.93
75553;BME280;64136;53.118;17.996;2023-03-14T05:22:57;98592.42;;;10.64;79.17
75553;BME280;64136;53.118;17.996;2023-03-14T05:25:27;98597.02;;;10.62;79.03
75553;BME280;64136;53.118;17.996;2023-03-14T05:27:57;98607.07;;;10.60;78.94
75553;BME280;64136;53.118;17.996;2023-03-14T05:30:35;98613.30;;;10.56;78.85
75553;BME280;64136;53.118;17.996;2023-03-14T05:33:19;98609.38;;;10.52;78.69
75553;BME280;64136;53.118;17.996;2023-03-14T05:35:49;98594.53;;;10.51;78.26
75553;BME280;64136;53.118;17.996;2023-03-14T05:38:18;98599.48;;;10.51;77.74
75553;BME280;64136;53.118;17.996;2023-03-14T05:40:48;98601.65;;;10.53;77.07
75553;BME280;64136;53.118;17.996;2023-03-14T05:43:27;98589.68;;;10.54;77.08
75553;BME280;64136;53.118;17.996;2023-03-14T05:46:03;98596.85;;;10.51;76.86
75553;BME280;64136;53.118;17.996;2023-03-14T05:48:33;98596.31;;;10.53;76.58
75553;BME280;64136;53.118;17.996;2023-03-14T05:51:03;98597.85;;;10.55;76.30
75553;BME280;64136;53.118;17.996;2023-03-14T05:53:38;98591.63;;;10.56;76.06
75553;BME280;64136;53.118;17.996;2023-03-14T05:56:08;98603.37;;;10.51;75.30
75553;BME280;64136;53.118;17.996;2023-03-14T05:58:46;98611.44;;;10.50;74.91
75553;BME280;64136;53.118;17.996;2023-03-14T06:01:15;98598.46;;;10.53;74.78
75553;BME280;64136;53.118;17.996;2023-03-14T06:03:45;98594.30;;;10.61;74.83
75553;BME280;64136;53.118;17.996;2023-03-14T06:06:12;98592.45;;;10.63;73.81
75553;BME280;64136;53.118;17.996;2023-03-14T06:08:38;98597.80;;;10.67;73.64
75553;BME280;64136;53.118;17.996;2023-03-14T06:11:05;98598.09;;;10.66;73.11
75553;BME280;64136;53.118;17.996;2023-03-14T06:13:32;98596.20;;;10.63;72.66
75553;BME280;64136;53.118;17.996;2023-03-14T06:15:58;98608.70;;;10.67;72.40
75553;BME280;64136;53.118;17.996;2023-03-14T06:18:24;98611.65;;;10.70;72.17
75553;BME280;64136;53.118;17.996;2023-03-14T06:20:57;98613.73;;;10.70;71.52
75553;BME280;64136;53.118;17.996;2023-03-14T06:23:25;98622.30;;;10.75;71.25
75553;BME280;64136;53.118;17.996;2023-03-14T06:25:52;98625.15;;;10.79;70.93
75553;BME280;64136;53.118;17.996;2023-03-14T06:28:20;98631.68;;;10.81;70.41
75553;BME280;64136;53.118;17.996;2023-03-14T06:30:47;98626.30;;;10.81;70.41
75553;BME280;64136;53.118;17.996;2023-03-14T06:33:14;98624.81;;;10.82;70.12
75553;BME280;64136;53.118;17.996;2023-03-14T06:35:40;98627.34;;;10.89;70.31
75553;BME280;64136;53.118;17.996;2023-03-14T06:38:07;98621.05;;;10.95;70.05
75553;BME280;64136;53.118;17.996;2023-03-14T06:40:33;98619.56;;;10.99;70.22
75553;BME280;64136;53.118;17.996;2023-03-14T06:43:05;98614.23;;;11.01;70.08
75553;BME280;64136;53.118;17.996;2023-03-14T06:45:32;98607.53;;;10.97;69.79
75553;BME280;64136;53.118;17.996;2023-03-14T06:47:59;98605.88;;;10.94;69.80
75553;BME280;64136;53.118;17.996;2023-03-14T06:50:32;98608.55;;;10.91;69.79
75553;BME280;64136;53.118;17.996;2023-03-14T06:57:52;98610.02;;;10.89;70.00
75553;BME280;64136;53.118;17.996;2023-03-14T07:00:19;98607.84;;;10.95;69.86
75553;BME280;64136;53.118;17.996;2023-03-14T07:02:46;98607.95;;;11.04;69.64
75553;BME280;64136;53.118;17.996;2023-03-14T07:05:16;98617.94;;;11.09;69.45
75553;BME280;64136;53.118;17.996;2023-03-14T07:10:09;98618.31;;;11.24;69.23
75553;BME280;64136;53.118;17.996;2023-03-14T07:12:36;98621.23;;;11.31;69.16
75553;BME280;64136;53.118;17.996;2023-03-14T07:15:02;98609.02;;;11.43;68.91
75553;BME280;64136;53.118;17.996;2023-03-14T07:17:28;98614.39;;;11.57;68.44
75553;BME280;64136;53.118;17.996;2023-03-14T07:19:56;98609.59;;;11.64;68.12
75553;BME280;64136;53.118;17.996;2023-03-14T07:22:22;98611.54;;;11.73;68.02
75553;BME280;64136;53.118;17.996;2023-03-14T07:24:49;98610.08;;;11.78;67.63
75553;BME280;64136;53.118;17.996;2023-03-14T07:27:15;98604.61;;;11.84;67.28
75553;BME280;64136;53.118;17.996;2023-03-14T07:29:42;98611.95;;;11.91;67.62
75553;BME280;64136;53.118;17.996;2023-03-14T07:32:08;98618.08;;;11.99;67.02
75553;BME280;64136;53.118;17.996;2023-03-14T07:34:35;98614.15;;;12.02;66.71
75553;BME280;64136;53.118;17.996;2023-03-14T07:37:02;98620.02;;;12.12;67.11
75553;BME280;64136;53.118;17.996;2023-03-14T07:39:28;98620.71;;;12.18;67.19
75553;BME280;64136;53.118;17.996;2023-03-14T07:42:00;98623.41;;;12.16;66.58
75553;BME280;64136;53.118;17.996;2023-03-14T07:44:40;98618.49;;;12.23;66.45
75553;BME280;64136;53.118;17.996;2023-03-14T07:47:06;98616.57;;;12.30;66.39
75553;BME280;64136;53.118;17.996;2023-03-14T07:49:32;98610.63;;;12.37;66.28
75553;BME280;64136;53.118;17.996;2023-03-14T07:51:59;98609.61;;;12.45;66.47
75553;BME280;64136;53.118;17.996;2023-03-14T07:54:25;98611.04;;;12.51;66.48
75553;BME280;64136;53.118;17.996;2023-03-14T07:56:51;98606.58;;;12.62;66.26
75553;BME280;64136;53.118;17.996;2023-03-14T07:59:18;98606.38;;;12.67;65.82
75553;BME280;64136;53.118;17.996;2023-03-14T08:01:45;98604.17;;;12.72;65.98
75553;BME280;64136;53.118;17.996;2023-03-14T08:04:11;98604.06;;;12.71;65.82
75553;BME280;64136;53.118;17.996;2023-03-14T08:06:37;98603.61;;;12.68;65.90
75553;BME280;64136;53.118;17.996;2023-03-14T08:09:04;98596.06;;;12.72;65.63
75553;BME280;64136;53.118;17.996;2023-03-14T08:11:30;98586.69;;;12.75;65.68
75553;BME280;64136;53.118;17.996;2023-03-14T08:13:57;98592.48;;;12.73;65.43
75553;BME280;64136;53.118;17.996;2023-03-14T08:16:23;98581.27;;;12.66;65.55
75553;BME280;64136;53.118;17.996;2023-03-14T08:18:49;98577.52;;;12.66;65.69
75553;BME280;64136;53.118;17.996;2023-03-14T08:21:15;98574.04;;;12.61;65.68
75553;BME280;64136;53.118;17.996;2023-03-14T08:23:41;98580.22;;;12.54;65.86
75553;BME280;64136;53.118;17.996;2023-03-14T08:26:08;98584.81;;;12.64;65.72
75553;BME280;64136;53.118;17.996;2023-03-14T08:28:34;98577.13;;;12.77;65.67
75553;BME280;64136;53.118;17.996;2023-03-14T08:31:01;98573.98;;;12.91;65.44
75553;BME280;64136;53.118;17.996;2023-03-14T08:33:28;98575.91;;;12.95;65.09
75553;BME280;64136;53.118;17.996;2023-03-14T08:35:57;98576.88;;;12.97;65.13
75553;BME280;64136;53.118;17.996;2023-03-14T08:38:23;98583.15;;;13.02;64.77
75553;BME280;64136;53.118;17.996;2023-03-14T08:40:56;98590.55;;;12.99;64.50
75553;BME280;64136;53.118;17.996;2023-03-14T08:43:23;98593.02;;;12.91;64.78
75553;BME280;64136;53.118;17.996;2023-03-14T08:45:50;98593.52;;;13.00;64.70
75553;BME280;64136;53.118;17.996;2023-03-14T08:48:16;98597.73;;;12.97;64.76
75553;BME280;64136;53.118;17.996;2023-03-14T08:50:42;98595.36;;;12.84;65.01
75553;BME280;64136;53.118;17.996;2023-03-14T08:53:09;98596.65;;;12.83;65.09
75553;BME280;64136;53.118;17.996;2023-03-14T08:55:36;98601.95;;;12.77;65.32
75553;BME280;64136;53.118;17.996;2023-03-14T08:58:02;98616.96;;;12.68;65.56
75553;BME280;64136;53.118;17.996;2023-03-14T09:00:28;98619.67;;;12.55;66.05
75553;BME280;64136;53.118;17.996;2023-03-14T09:02:54;98620.35;;;12.42;66.46
75553;BME280;64136;53.118;17.996;2023-03-14T09:05:20;98623.52;;;12.34;66.79
75553;BME280;64136;53.118;17.996;2023-03-14T09:07:46;98622.52;;;12.42;66.71
75553;BME280;64136;53.118;17.996;2023-03-14T09:10:13;98628.30;;;12.48;66.73
75553;BME280;64136;53.118;17.996;2023-03-14T09:12:39;98615.15;;;12.63;66.30
75553;BME280;64136;53.118;17.996;2023-03-14T09:15:06;98616.91;;;12.82;66.24
75553;BME280;64136;53.118;17.996;2023-03-14T09:17:33;98625.77;;;12.90;65.74
75553;BME280;64136;53.118;17.996;2023-03-14T09:19:59;98607.54;;;13.00;65.67
75553;BME280;64136;53.118;17.996;2023-03-14T09:22:25;98600.58;;;13.15;65.22
75553;BME280;64136;53.118;17.996;2023-03-14T09:24:52;98597.34;;;13.22;64.65
75553;BME280;64136;53.118;17.996;2023-03-14T09:27:18;98597.89;;;13.38;64.32
75553;BME280;64136;53.118;17.996;2023-03-14T09:29:44;98588.61;;;13.55;63.96
75553;BME280;64136;53.118;17.996;2023-03-14T09:32:10;98587.87;;;13.78;63.96
75553;BME280;64136;53.118;17.996;2023-03-14T09:34:36;98586.62;;;13.89;62.88
75553;BME280;64136;53.118;17.996;2023-03-14T09:37:03;98593.13;;;13.88;62.80
75553;BME280;64136;53.118;17.996;2023-03-14T09:39:29;98598.05;;;13.97;62.12
75553;BME280;64136;53.118;17.996;2023-03-14T09:41:57;98597.23;;;13.90;61.87
75553;BME280;64136;53.118;17.996;2023-03-14T09:44:33;98606.28;;;14.00;62.01
75553;BME280;64136;53.118;17.996;2023-03-14T09:47:05;98606.09;;;13.95;61.81
75553;BME280;64136;53.118;17.996;2023-03-14T09:49:34;98601.40;;;14.07;61.53
75553;BME280;64136;53.118;17.996;2023-03-14T09:52:11;98600.95;;;14.12;61.19
75553;BME280;64136;53.118;17.996;2023-03-14T09:54:47;98603.72;;;14.13;61.02
75553;BME280;64136;53.118;17.996;2023-03-14T09:57:17;98604.79;;;13.97;61.28
75553;BME280;64136;53.118;17.996;2023-03-14T09:59:46;98605.09;;;14.12;60.94
75553;BME280;64136;53.118;17.996;2023-03-14T10:02:21;98607.51;;;14.04;60.71
75553;BME280;64136;53.118;17.996;2023-03-14T10:04:50;98603.89;;;13.92;60.69
75553;BME280;64136;53.118;17.996;2023-03-14T10:07:23;98600.74;;;13.71;61.24
75553;BME280;64136;53.118;17.996;2023-03-14T10:09:51;98599.72;;;13.65;61.95
75553;BME280;64136;53.118;17.996;2023-03-14T10:12:18;98602.36;;;13.56;61.65
75553;BME280;64136;53.118;17.996;2023-03-14T10:14:50;98598.77;;;13.47;62.23
75553;BME280;64136;53.118;17.996;2023-03-14T10:17:19;98602.32;;;13.55;62.19
75553;BME280;64136;53.118;17.996;2023-03-14T10:19:58;98602.52;;;13.51;62.51
75553;BME280;64136;53.118;17.996;2023-03-14T10:22:29;98607.03;;;13.65;62.43
75553;BME280;64136;53.118;17.996;2023-03-14T10:25:00;98612.63;;;13.63;62.46
75553;BME280;64136;53.118;17.996;2023-03-14T10:27:32;98612.19;;;13.72;62.32
75553;BME280;64136;53.118;17.996;2023-03-14T10:35:10;98591.56;;;13.73;60.97
75553;BME280;64136;53.118;17.996;2023-03-14T10:40:19;98600.08;;;13.98;60.47
75553;BME280;64136;53.118;17.996;2023-03-14T10:42:48;98592.34;;;14.00;60.08
75553;BME280;64136;53.118;17.996;2023-03-14T10:45:36;98591.48;;;14.06;59.79
75553;BME280;64136;53.118;17.996;2023-03-14T10:48:20;98587.81;;;14.18;59.73
75553;BME280;64136;53.118;17.996;2023-03-14T10:53:26;98589.83;;;14.29;59.58
75553;BME280;64136;53.118;17.996;2023-03-14T10:55:55;98592.92;;;14.22;59.40
75553;BME280;64136;53.118;17.996;2023-03-14T10:58:25;98595.90;;;14.08;59.46
75553;BME280;64136;53.118;17.996;2023-03-14T11:01:03;98596.77;;;13.99;59.87
75553;BME280;64136;53.118;17.996;2023-03-14T11:06:14;98605.40;;;13.92;60.42
75553;BME280;64136;53.118;17.996;2023-03-14T11:08:59;98607.62;;;13.76;60.81
75553;BME280;64136;53.118;17.996;2023-03-14T11:11:31;98608.41;;;13.77;61.00
75553;BME280;64136;53.118;17.996;2023-03-14T11:14:11;98601.75;;;13.81;61.04
75553;BME280;64136;53.118;17.996;2023-03-14T11:16:53;98596.00;;;13.78;60.90
75553;BME280;64136;53.118;17.996;2023-03-14T11:22:36;98597.44;;;13.88;60.31
75553;BME280;64136;53.118;17.996;2023-03-14T11:27:44;98598.73;;;14.16;59.60
75553;BME280;64136;53.118;17.996;2023-03-14T11:30:17;98602.81;;;14.31;59.19
75553;BME280;64136;53.118;17.996;2023-03-14T11:35:33;98609.23;;;14.48;58.23
75553;BME280;64136;53.118;17.996;2023-03-14T11:38:12;98606.45;;;14.55;58.18
75553;BME280;64136;53.118;17.996;2023-03-14T11:40:39;98611.81;;;14.68;57.74
75553;BME280;64136;53.118;17.996;2023-03-14T11:43:14;98607.56;;;14.61;57.87
75553;BME280;64136;53.118;17.996;2023-03-14T11:45:43;98611.08;;;14.70;57.69
75553;BME280;64136;53.118;17.996;2023-03-14T11:48:24;98604.96;;;14.76;57.71
75553;BME280;64136;53.118;17.996;2023-03-14T11:50:57;98605.92;;;14.91;57.91
75553;BME280;64136;53.118;17.996;2023-03-14T11:56:27;98610.19;;;14.65;57.88
75553;BME280;64136;53.118;17.996;2023-03-14T12:01:33;98608.36;;;14.58;58.25
75553;BME280;64136;53.118;17.996;2023-03-14T12:04:16;98603.42;;;14.62;58.39
75553;BME280;64136;53.118;17.996;2023-03-14T12:06:51;98604.73;;;14.52;58.59
75553;BME280;64136;53.118;17.996;2023-03-14T12:09:20;98605.38;;;14.33;58.73
75553;BME280;64136;53.118;17.996;2023-03-14T12:14:25;98591.88;;;14.28;59.32
75553;BME280;64136;53.118;17.996;2023-03-14T12:16:55;98586.09;;;14.18;59.30
75553;BME280;64136;53.118;17.996;2023-03-14T12:19:28;98582.88;;;14.00;59.74
75553;BME280;64136;53.118;17.996;2023-03-14T12:22:00;98582.22;;;13.87;60.31
75553;BME280;64136;53.118;17.996;2023-03-14T12:26:59;98576.06;;;14.07;60.18
75553;BME280;64136;53.118;17.996;2023-03-14T12:29:26;98575.34;;;14.37;59.40
75553;BME280;64136;53.118;17.996;2023-03-14T12:32:08;98569.92;;;14.66;58.66
75553;BME280;64136;53.118;17.996;2023-03-14T12:34:42;98573.33;;;15.04;57.68
75553;BME280;64136;53.118;17.996;2023-03-14T12:37:25;98575.73;;;15.14;57.61
75553;BME280;64136;53.118;17.996;2023-03-14T12:40:01;98565.54;;;14.87;57.53
75553;BME280;64136;53.118;17.996;2023-03-14T12:45:31;98554.21;;;14.81;58.51
75553;BME280;64136;53.118;17.996;2023-03-14T12:48:19;98557.34;;;14.89;58.06
75553;BME280;64136;53.118;17.996;2023-03-14T12:51:03;98560.48;;;15.00;57.55
75553;BME280;64136;53.118;17.996;2023-03-14T12:53:45;98556.34;;;14.99;57.67
75553;BME280;64136;53.118;17.996;2023-03-14T12:59:00;98557.59;;;14.90;58.09
75553;BME280;64136;53.118;17.996;2023-03-14T13:01:33;98555.49;;;14.88;58.19
75553;BME280;64136;53.118;17.996;2023-03-14T13:04:08;98557.66;;;14.85;58.37
75553;BME280;64136;53.118;17.996;2023-03-14T13:06:54;98555.82;;;14.82;58.41
75553;BME280;64136;53.118;17.996;2023-03-14T13:09:48;98554.31;;;14.75;58.44
75553;BME280;64136;53.118;17.996;2023-03-14T13:12:18;98553.86;;;14.79;58.54
75553;BME280;64136;53.118;17.996;2023-03-14T13:14:48;98548.67;;;14.79;58.54
75553;BME280;64136;53.118;17.996;2023-03-14T13:17:22;98546.65;;;14.70;58.88
75553;BME280;64136;53.118;17.996;2023-03-14T13:19:55;98544.39;;;14.67;58.91
75553;BME280;64136;53.118;17.996;2023-03-14T13:22:27;98552.81;;;14.62;58.98
75553;BME280;64136;53.118;17.996;2023-03-14T13:25:05;98561.65;;;14.52;59.28
75553;BME280;64136;53.118;17.996;2023-03-14T13:27:34;98552.70;;;14.49;59.42
75553;BME280;64136;53.118;17.996;2023-03-14T13:30:14;98554.05;;;14.35;59.65
75553;BME280;64136;53.118;17.996;2023-03-14T13:32:43;98555.21;;;14.21;59.94
75553;BME280;64136;53.118;17.996;2023-03-14T13:35:15;98556.85;;;14.01;60.97
75553;BME280;64136;53.118;17.996;2023-03-14T13:37:42;98558.91;;;13.92;61.44
75553;BME280;64136;53.118;17.996;2023-03-14T13:40:19;98559.44;;;13.94;61.41
75553;BME280;64136;53.118;17.996;2023-03-14T13:42:45;98559.34;;;13.80;61.62
75553;BME280;64136;53.118;17.996;2023-03-14T13:45:13;98564.14;;;13.88;61.26
75553;BME280;64136;53.118;17.996;2023-03-14T13:47:40;98565.96;;;13.89;61.12
75553;BME280;64136;53.118;17.996;2023-03-14T13:50:15;98568.00;;;13.89;61.13
75553;BME280;64136;53.118;17.996;2023-03-14T13:52:43;98562.34;;;13.79;61.33
75553;BME280;64136;53.118;17.996;2023-03-14T13:55:17;98560.40;;;13.76;61.36
75553;BME280;64136;53.118;17.996;2023-03-14T13:57:47;98558.24;;;13.73;61.24
75553;BME280;64136;53.118;17.996;2023-03-14T14:00:19;98552.70;;;13.74;61.23
75553;BME280;64136;53.118;17.996;2023-03-14T14:02:46;98552.17;;;13.79;60.95
75553;BME280;64136;53.118;17.996;2023-03-14T14:05:14;98554.52;;;14.01;60.55
75553;BME280;64136;53.118;17.996;2023-03-14T14:07:43;98552.25;;;14.30;59.77